Du har inga inställningar för hoppväder.nu

Hoppväder.nu

Senast uppdaterat 20:32

UTC-tid

2024-07-15 kl. 18:32


Sol och måne

Solen går upp 3:56 och går ner 22:56 (beräknade cirkatider)
Nästa fullmåne blir om 6 dagar (2024-07-21)

METAR

ESSA (Arlanda, Stockholm)
(12 minuter sedan)
ESSA 151820Z 18012KT CAVOK 18/12 Q1012 NOSIG=



ESSD (Borlänge)
(12 minuter sedan)
ESSD 151820Z AUTO 11004KT 9999 FEW024/// SCT031/// OVC062/// 17/15 Q1011=



EFMA (Mariehamn)
(12 minuter sedan)
EFMA 151820Z 16007KT CAVOK 18/13 Q1014=



ESOW (Västerås)
(12 minuter sedan)
ESOW 151820Z AUTO 23007KT 9999 SCT025/// BKN090/// 17/13 Q1012=






TAF

ESSA (Arlanda, Stockholm)
(62 minuter sedan)
ESSA 151730Z 1518/1618 18011KT CAVOK PROB40 1519/1522 SHRA SCT050CB PROB40 1602/1605 BKN008=



ESSD (Borlänge)
ESSD



EFMA (Mariehamn)
(62 minuter sedan)
EFMA 151730Z 1518/1603 19009KT CAVOK TEMPO 1521/1603 5000 TSRA BKN006 BKN030CB=



ESOW (Västerås)
ESOW





Kodnycklar till TAF och METAR






LHP

(Gärdet är område se32a i Delområde 2)

Översikt

ÖVERSIKT FÖR OMRÅDE se3 UTFÄRDAD 151135

GÄLLANDE DEN 15 JULI 2024 MELLAN 12 OCH 20 UTC


Väderöversikt
Ett lågtryck i väster berör södra Sverige.

Sikt under 5 kilometer eller molnbas under 1000 fot
12-16UTC: I hela området

Måttlig eller svår isbildning
Väntas inte förekomma under perioden
Måttlig eller svår turbulens
Väntas inte förekomma under perioden


Delområde 2

PROGNOS FÖR OMRÅDE se32 UTFÄRDAD 151135
GÄLLANDE DEN 15 JULI 2024 MELLAN 12 OCH 20 UTC


Måttlig eller svår turbulens
12-20UTC: I hela området: Väntas inte förekomma under perioden

Måttlig eller svår isbildning
12-20UTC: I hela området: Väntas inte förekomma under perioden

Sikt/Väder/Moln
12-14UTC: Område se32a, se32e, se32f: Sikt 3km - >8km i regnskurar, åska. Molnbas >2000ft.

12-16UTC: Område se32d: Sikt >8km, lokalt 3km - 5km i regnskurar, åska. Molnbas >2000ft.

12-20UTC: Område se32b, se32c, se32g, se32h, se32i, se32j: Sikt >8km, lokalt 3km - 5km i regnskurar, åska. Molnbas >2000ft.

14-20UTC: Område se32a, se32e, se32f: Sikt >8km, lokalt 3km - 5km i regnskurar, åska. Molnbas >2000ft.

16-18UTC: Område se32d: Sikt 3km - >8km i regnskurar, åska, regn. Molnbas 1000ft - >2000ft.

18-20UTC: Område se32d: Sikt >8km, lokalt 3km - 5km i regnskurar, åska. Molnbas >2000ft.


Molnöversida
12-20UTC: I hela området: Molnöversida > FL125.

CB/TCU Moln
12-16UTC: Område se32d: isol cb

12-20UTC: Område se32a, se32b, se32c, se32e, se32f, se32g, se32h, se32i, se32j: isol cb

16-18UTC: Område se32d: isol cb, isol embd cb

18-20UTC: Område se32d: isol cb


Nollgradersisoterm
12-14UTC: I hela området: Noll grader FL080 - FL090.
14-18UTC: Område se32c, se32j: Noll grader FL085 - FL090.

14-20UTC: Område se32a, se32b, se32d, se32e, se32f, se32g, se32h, se32i: Noll grader FL085 - FL090.

18-20UTC: Område se32c, se32j: Noll grader FL085 - FL100.


Vind vid marken
12-14UTC: Område se32a: SO-S/5-14 knop, byar upp till 24 knop.
Område se32b: SO-S/2-16 knop, byar upp till 22 knop.
Område se32c: SO/0-17 knop, byar upp till 23 knop.
Område se32d: S-SV/0-15 knop, byar upp till 38 knop.
Område se32e: S/3-17 knop, byar upp till 28 knop.
Område se32f: S/5-13 knop, byar upp till 24 knop.
Område se32g: SO-S/3-12 knop, byar upp till 25 knop.
Område se32h: SO-S/1-11 knop, byar upp till 21 knop.
Område se32i: SO/2-11 knop, byar upp till 18 knop.
Område se32j: SO/0-10 knop, byar upp till 25 knop.

14-16UTC: Område se32a: SO-S/0-11 knop, byar upp till 21 knop.
Område se32b: SO/2-13 knop, byar upp till 19 knop.
Område se32c: SO/1-15 knop, byar upp till 24 knop.
Område se32d: SO/1-11 knop, byar upp till 20 knop.
Område se32e: SO-S/0-11 knop, byar upp till 25 knop.
Område se32f: S/5-10 knop, byar upp till 23 knop.
Område se32g: SO-S/3-8 knop, byar upp till 19 knop.
Område se32h: SO-S/0-11 knop, byar upp till 18 knop.
Område se32i: SO-S/0-14 knop, byar upp till 24 knop.
Område se32j: SO/0-10 knop, byar upp till 24 knop.

16-18UTC: Område se32a: SO/3-11 knop, byar upp till 17 knop.
Område se32b: SO/0-14 knop, byar upp till 18 knop.
Område se32d: SO/0-12 knop, byar upp till 19 knop.
Område se32e: SO-S/1-10 knop, byar upp till 20 knop.
Område se32f: SO/3-9 knop, byar upp till 17 knop.
Område se32g: SO-S/3-9 knop, byar upp till 17 knop.
Område se32h: SO/0-11 knop, byar upp till 18 knop.
Område se32i: SO/1-11 knop, byar upp till 16 knop.
Område se32j: S/0-9 knop, byar upp till 20 knop.

16-20UTC: Område se32c: SO-S/0-17 knop, byar upp till 21 knop.

18-20UTC: Område se32a: SO-S/2-12 knop, byar upp till 18 knop.
Område se32b: SO/0-11 knop, byar upp till 16 knop.
Område se32d: SO-S/0-11 knop, byar upp till 20 knop.
Område se32e: SO-S/2-11 knop, byar upp till 18 knop.
Område se32f: SO-S/2-7 knop, byar upp till 14 knop.
Område se32g: SO-S/2-10 knop, byar upp till 15 knop.
Område se32h: SO-S/0-11 knop, byar upp till 16 knop.
Område se32i: SO-S/2-10 knop, byar upp till 16 knop.
Område se32j: Vrb/0-10 knop, byar upp till 15 knop.


Genomsnittlig vind och temperatur för området

2000ft:
12-14UTC: 190/19kt +13.
14-18UTC: 190/18kt +13.
18-20UTC: 200/17kt +13.

FL050:
12-14UTC: 200/21kt +6.
14-16UTC: 200/20kt +6.
16-18UTC: 200/19kt +7.
18-20UTC: 210/18kt +7.

FL100:
12-14UTC: 200/22kt -3.
14-16UTC: 210/22kt -3.
16-18UTC: 220/20kt -3.
18-20UTC: 220/18kt -2.

Lägsta QNH
12-16UTC: I hela området: 1010 hPa
16-20UTC: I hela området: 1011 hPa

OBS! endast utbredd måttlig eller svår isbildning och turbulens prognostiseras i LLF.
Avsaknad av isbildning och turbulens i prognosen utesluter inte förekomst av lätt isbildning och turbulens.
För indikation på lätt isbildning, var vänlig kontrollera om prognosen för molntopp ligger högre än nollgradersisotermen.
Förekomst av TCU eller CB medför alltid en risk för måttlig eller svår isbildning och turbulens även om det inte framgår explicit av prognosen.